sensor_id;sensor_type;location;lat;lon;timestamp;P1;durP1;ratioP1;P2;durP2;ratioP2
24485;SDS011;13449;49.374;8.584;2023-10-31T00:00:18;3.50;;;0.47;;
24485;SDS011;13449;49.374;8.584;2023-10-31T00:02:44;1.90;;;0.52;;
24485;SDS011;13449;49.374;8.584;2023-10-31T00:05:11;1.35;;;0.38;;
24485;SDS011;13449;49.374;8.584;2023-10-31T00:07:37;1.67;;;0.40;;
24485;SDS011;13449;49.374;8.584;2023-10-31T00:10:06;0.90;;;0.45;;
24485;SDS011;13449;49.374;8.584;2023-10-31T00:12:33;4.07;;;0.55;;
24485;SDS011;13449;49.374;8.584;2023-10-31T00:15:00;5.80;;;0.55;;
24485;SDS011;13449;49.374;8.584;2023-10-31T00:17:28;0.40;;;0.40;;
24485;SDS011;13449;49.374;8.584;2023-10-31T00:19:55;0.57;;;0.38;;
24485;SDS011;13449;49.374;8.584;2023-10-31T00:22:22;4.22;;;0.60;;
24485;SDS011;13449;49.374;8.584;2023-10-31T00:24:49;1.75;;;0.57;;
24485;SDS011;13449;49.374;8.584;2023-10-31T00:27:15;5.95;;;0.95;;
24485;SDS011;13449;49.374;8.584;2023-10-31T00:29:42;0.38;;;0.30;;
24485;SDS011;13449;49.374;8.584;2023-10-31T00:32:08;1.67;;;0.45;;
24485;SDS011;13449;49.374;8.584;2023-10-31T00:34:34;0.43;;;0.43;;
24485;SDS011;13449;49.374;8.584;2023-10-31T00:37:01;0.65;;;0.40;;
24485;SDS011;13449;49.374;8.584;2023-10-31T00:39:28;1.52;;;0.50;;
24485;SDS011;13449;49.374;8.584;2023-10-31T00:41:54;6.18;;;0.30;;
24485;SDS011;13449;49.374;8.584;2023-10-31T00:44:21;1.65;;;0.68;;
24485;SDS011;13449;49.374;8.584;2023-10-31T00:46:47;0.40;;;0.30;;
24485;SDS011;13449;49.374;8.584;2023-10-31T00:49:14;0.80;;;0.40;;
24485;SDS011;13449;49.374;8.584;2023-10-31T00:51:40;0.38;;;0.32;;
24485;SDS011;13449;49.374;8.584;2023-10-31T00:54:06;1.52;;;0.30;;
24485;SDS011;13449;49.374;8.584;2023-10-31T00:56:33;0.50;;;0.30;;
24485;SDS011;13449;49.374;8.584;2023-10-31T00:59:01;0.35;;;0.22;;
24485;SDS011;13449;49.374;8.584;2023-10-31T01:01:27;3.42;;;0.63;;
24485;SDS011;13449;49.374;8.584;2023-10-31T01:03:54;0.90;;;0.20;;
24485;SDS011;13449;49.374;8.584;2023-10-31T01:06:20;2.60;;;0.50;;
24485;SDS011;13449;49.374;8.584;2023-10-31T01:08:47;0.63;;;0.50;;
24485;SDS011;13449;49.374;8.584;2023-10-31T01:11:13;1.55;;;0.30;;
24485;SDS011;13449;49.374;8.584;2023-10-31T01:13:42;2.80;;;0.32;;
24485;SDS011;13449;49.374;8.584;2023-10-31T01:16:11;2.10;;;0.63;;
24485;SDS011;13449;49.374;8.584;2023-10-31T01:18:38;0.30;;;0.30;;
24485;SDS011;13449;49.374;8.584;2023-10-31T01:21:07;0.30;;;0.30;;
24485;SDS011;13449;49.374;8.584;2023-10-31T01:23:35;4.38;;;0.60;;
24485;SDS011;13449;49.374;8.584;2023-10-31T01:26:01;3.60;;;0.70;;
24485;SDS011;13449;49.374;8.584;2023-10-31T01:28:28;0.90;;;0.57;;
24485;SDS011;13449;49.374;8.584;2023-10-31T01:30:54;0.60;;;0.60;;
24485;SDS011;13449;49.374;8.584;2023-10-31T01:33:21;2.97;;;0.50;;
24485;SDS011;13449;49.374;8.584;2023-10-31T01:35:50;0.52;;;0.38;;
24485;SDS011;13449;49.374;8.584;2023-10-31T01:38:16;0.63;;;0.57;;
24485;SDS011;13449;49.374;8.584;2023-10-31T01:40:43;0.95;;;0.57;;
24485;SDS011;13449;49.374;8.584;2023-10-31T01:43:09;0.68;;;0.50;;
24485;SDS011;13449;49.374;8.584;2023-10-31T01:45:36;3.83;;;0.43;;
24485;SDS011;13449;49.374;8.584;2023-10-31T01:48:02;16.10;;;1.48;;
24485;SDS011;13449;49.374;8.584;2023-10-31T01:50:29;0.40;;;0.40;;
24485;SDS011;13449;49.374;8.584;2023-10-31T01:52:58;3.78;;;0.50;;
24485;SDS011;13449;49.374;8.584;2023-10-31T01:55:27;0.77;;;0.40;;
24485;SDS011;13449;49.374;8.584;2023-10-31T01:57:55;1.30;;;0.55;;
24485;SDS011;13449;49.374;8.584;2023-10-31T02:00:22;1.58;;;0.50;;
24485;SDS011;13449;49.374;8.584;2023-10-31T02:02:51;0.30;;;0.30;;
24485;SDS011;13449;49.374;8.584;2023-10-31T02:05:21;3.33;;;0.40;;
24485;SDS011;13449;49.374;8.584;2023-10-31T02:07:48;4.38;;;0.40;;
24485;SDS011;13449;49.374;8.584;2023-10-31T02:10:14;0.65;;;0.50;;
24485;SDS011;13449;49.374;8.584;2023-10-31T02:12:41;1.55;;;0.63;;
24485;SDS011;13449;49.374;8.584;2023-10-31T02:15:11;0.40;;;0.40;;
24485;SDS011;13449;49.374;8.584;2023-10-31T02:17:37;0.68;;;0.40;;
24485;SDS011;13449;49.374;8.584;2023-10-31T02:20:07;0.70;;;0.40;;
24485;SDS011;13449;49.374;8.584;2023-10-31T02:22:34;0.40;;;0.40;;
24485;SDS011;13449;49.374;8.584;2023-10-31T02:25:00;1.17;;;0.43;;
24485;SDS011;13449;49.374;8.584;2023-10-31T02:27:27;1.25;;;0.43;;
24485;SDS011;13449;49.374;8.584;2023-10-31T02:29:55;0.95;;;0.90;;
24485;SDS011;13449;49.374;8.584;2023-10-31T02:32:22;0.43;;;0.43;;
24485;SDS011;13449;49.374;8.584;2023-10-31T02:34:49;1.27;;;0.40;;
24485;SDS011;13449;49.374;8.584;2023-10-31T02:37:15;1.02;;;0.70;;
24485;SDS011;13449;49.374;8.584;2023-10-31T02:39:46;3.55;;;0.38;;
24485;SDS011;13449;49.374;8.584;2023-10-31T02:42:13;1.13;;;0.45;;
24485;SDS011;13449;49.374;8.584;2023-10-31T02:44:39;0.50;;;0.50;;
24485;SDS011;13449;49.374;8.584;2023-10-31T02:47:06;0.47;;;0.47;;
24485;SDS011;13449;49.374;8.584;2023-10-31T02:49:32;0.77;;;0.45;;
24485;SDS011;13449;49.374;8.584;2023-10-31T02:52:01;1.08;;;0.85;;
24485;SDS011;13449;49.374;8.584;2023-10-31T02:54:30;3.88;;;1.08;;
24485;SDS011;13449;49.374;8.584;2023-10-31T02:56:57;1.25;;;0.60;;
24485;SDS011;13449;49.374;8.584;2023-10-31T02:59:24;3.13;;;1.02;;
24485;SDS011;13449;49.374;8.584;2023-10-31T03:01:51;2.90;;;1.15;;
24485;SDS011;13449;49.374;8.584;2023-10-31T03:04:19;1.40;;;1.30;;
24485;SDS011;13449;49.374;8.584;2023-10-31T03:06:45;2.25;;;1.77;;
24485;SDS011;13449;49.374;8.584;2023-10-31T03:09:11;8.68;;;1.63;;
24485;SDS011;13449;49.374;8.584;2023-10-31T03:11:38;5.40;;;1.42;;
24485;SDS011;13449;49.374;8.584;2023-10-31T03:14:07;2.80;;;1.52;;
24485;SDS011;13449;49.374;8.584;2023-10-31T03:16:33;6.50;;;1.92;;
24485;SDS011;13449;49.374;8.584;2023-10-31T03:19:03;4.00;;;1.80;;
24485;SDS011;13449;49.374;8.584;2023-10-31T03:21:30;5.70;;;2.10;;
24485;SDS011;13449;49.374;8.584;2023-10-31T03:23:56;3.92;;;1.58;;
24485;SDS011;13449;49.374;8.584;2023-10-31T03:26:23;1.75;;;1.35;;
24485;SDS011;13449;49.374;8.584;2023-10-31T03:28:49;3.42;;;1.88;;
24485;SDS011;13449;49.374;8.584;2023-10-31T03:31:16;2.33;;;1.33;;
24485;SDS011;13449;49.374;8.584;2023-10-31T03:33:43;11.73;;;1.65;;
24485;SDS011;13449;49.374;8.584;2023-10-31T03:36:10;4.13;;;1.83;;
24485;SDS011;13449;49.374;8.584;2023-10-31T03:38:36;1.63;;;1.52;;
24485;SDS011;13449;49.374;8.584;2023-10-31T03:41:03;2.97;;;1.45;;
24485;SDS011;13449;49.374;8.584;2023-10-31T03:43:30;3.50;;;1.55;;
24485;SDS011;13449;49.374;8.584;2023-10-31T03:45:57;4.75;;;1.75;;
24485;SDS011;13449;49.374;8.584;2023-10-31T03:48:26;1.58;;;1.33;;
24485;SDS011;13449;49.374;8.584;2023-10-31T03:50:53;3.75;;;1.08;;
24485;SDS011;13449;49.374;8.584;2023-10-31T03:53:19;11.73;;;1.38;;
24485;SDS011;13449;49.374;8.584;2023-10-31T03:55:46;2.03;;;1.35;;
24485;SDS011;13449;49.374;8.584;2023-10-31T03:58:15;2.95;;;1.30;;
24485;SDS011;13449;49.374;8.584;2023-10-31T04:00:41;1.20;;;1.02;;
24485;SDS011;13449;49.374;8.584;2023-10-31T04:03:10;3.72;;;0.93;;
24485;SDS011;13449;49.374;8.584;2023-10-31T04:05:36;2.72;;;0.68;;
24485;SDS011;13449;49.374;8.584;2023-10-31T04:08:03;1.70;;;0.80;;
24485;SDS011;13449;49.374;8.584;2023-10-31T04:10:30;4.65;;;0.80;;
24485;SDS011;13449;49.374;8.584;2023-10-31T04:12:56;4.97;;;0.47;;
24485;SDS011;13449;49.374;8.584;2023-10-31T04:15:25;1.58;;;0.60;;
24485;SDS011;13449;49.374;8.584;2023-10-31T04:17:54;0.90;;;0.60;;
24485;SDS011;13449;49.374;8.584;2023-10-31T04:20:21;1.27;;;0.65;;
24485;SDS011;13449;49.374;8.584;2023-10-31T04:22:47;1.25;;;0.70;;
24485;SDS011;13449;49.374;8.584;2023-10-31T04:25:14;3.60;;;0.73;;
24485;SDS011;13449;49.374;8.584;2023-10-31T04:27:40;1.15;;;0.40;;
24485;SDS011;13449;49.374;8.584;2023-10-31T04:30:07;6.28;;;0.80;;
24485;SDS011;13449;49.374;8.584;2023-10-31T04:32:37;3.47;;;0.77;;
24485;SDS011;13449;49.374;8.584;2023-10-31T04:35:03;2.20;;;0.60;;
24485;SDS011;13449;49.374;8.584;2023-10-31T04:37:30;5.43;;;0.55;;
24485;SDS011;13449;49.374;8.584;2023-10-31T04:40:00;2.25;;;0.60;;
24485;SDS011;13449;49.374;8.584;2023-10-31T04:42:29;1.65;;;0.52;;
24485;SDS011;13449;49.374;8.584;2023-10-31T04:45:00;3.75;;;0.52;;
24485;SDS011;13449;49.374;8.584;2023-10-31T04:47:27;2.00;;;0.70;;
24485;SDS011;13449;49.374;8.584;2023-10-31T04:49:53;3.38;;;0.55;;
24485;SDS011;13449;49.374;8.584;2023-10-31T04:52:20;8.40;;;0.73;;
24485;SDS011;13449;49.374;8.584;2023-10-31T04:54:49;4.32;;;0.52;;
24485;SDS011;13449;49.374;8.584;2023-10-31T04:57:15;2.38;;;0.40;;
24485;SDS011;13449;49.374;8.584;2023-10-31T04:59:42;4.20;;;0.90;;
24485;SDS011;13449;49.374;8.584;2023-10-31T05:02:11;7.97;;;0.82;;
24485;SDS011;13449;49.374;8.584;2023-10-31T05:04:39;3.53;;;0.80;;
24485;SDS011;13449;49.374;8.584;2023-10-31T05:07:06;5.82;;;0.95;;
24485;SDS011;13449;49.374;8.584;2023-10-31T05:09:34;6.15;;;1.30;;
24485;SDS011;13449;49.374;8.584;2023-10-31T05:12:01;3.95;;;1.10;;
24485;SDS011;13449;49.374;8.584;2023-10-31T05:14:28;3.72;;;1.42;;
24485;SDS011;13449;49.374;8.584;2023-10-31T05:16:55;3.40;;;1.35;;
24485;SDS011;13449;49.374;8.584;2023-10-31T05:19:24;6.70;;;1.27;;
24485;SDS011;13449;49.374;8.584;2023-10-31T05:21:55;10.40;;;0.98;;
24485;SDS011;13449;49.374;8.584;2023-10-31T05:24:21;1.50;;;0.98;;
24485;SDS011;13449;49.374;8.584;2023-10-31T05:26:50;6.45;;;2.17;;
24485;SDS011;13449;49.374;8.584;2023-10-31T05:29:16;8.57;;;1.10;;
24485;SDS011;13449;49.374;8.584;2023-10-31T05:31:45;2.55;;;1.45;;
24485;SDS011;13449;49.374;8.584;2023-10-31T05:34:12;8.75;;;1.10;;
24485;SDS011;13449;49.374;8.584;2023-10-31T05:36:38;2.92;;;1.02;;
24485;SDS011;13449;49.374;8.584;2023-10-31T05:39:04;10.43;;;1.65;;
24485;SDS011;13449;49.374;8.584;2023-10-31T05:41:34;5.65;;;0.85;;
24485;SDS011;13449;49.374;8.584;2023-10-31T05:44:03;3.28;;;1.05;;
24485;SDS011;13449;49.374;8.584;2023-10-31T05:46:30;2.17;;;0.70;;
24485;SDS011;13449;49.374;8.584;2023-10-31T05:48:56;6.88;;;0.93;;
24485;SDS011;13449;49.374;8.584;2023-10-31T05:51:23;1.85;;;0.90;;
24485;SDS011;13449;49.374;8.584;2023-10-31T05:53:51;2.28;;;1.02;;
24485;SDS011;13449;49.374;8.584;2023-10-31T05:56:18;2.40;;;0.68;;
24485;SDS011;13449;49.374;8.584;2023-10-31T05:58:47;6.38;;;0.75;;
24485;SDS011;13449;49.374;8.584;2023-10-31T06:01:14;8.43;;;0.80;;
24485;SDS011;13449;49.374;8.584;2023-10-31T06:03:41;1.15;;;0.75;;
24485;SDS011;13449;49.374;8.584;2023-10-31T06:06:10;7.60;;;1.02;;
24485;SDS011;13449;49.374;8.584;2023-10-31T06:08:39;5.05;;;0.80;;
24485;SDS011;13449;49.374;8.584;2023-10-31T06:11:07;5.57;;;1.27;;
24485;SDS011;13449;49.374;8.584;2023-10-31T06:13:35;4.75;;;0.57;;
24485;SDS011;13449;49.374;8.584;2023-10-31T06:16:05;1.25;;;0.60;;
24485;SDS011;13449;49.374;8.584;2023-10-31T06:18:31;3.63;;;1.20;;
24485;SDS011;13449;49.374;8.584;2023-10-31T06:20:58;4.10;;;0.70;;
24485;SDS011;13449;49.374;8.584;2023-10-31T06:23:27;5.00;;;0.80;;
24485;SDS011;13449;49.374;8.584;2023-10-31T06:25:57;4.05;;;0.95;;
24485;SDS011;13449;49.374;8.584;2023-10-31T06:28:24;4.03;;;0.85;;
24485;SDS011;13449;49.374;8.584;2023-10-31T06:30:50;4.30;;;1.02;;
24485;SDS011;13449;49.374;8.584;2023-10-31T06:33:17;5.00;;;1.00;;
24485;SDS011;13449;49.374;8.584;2023-10-31T06:35:46;4.45;;;0.82;;
24485;SDS011;13449;49.374;8.584;2023-10-31T06:38:12;11.40;;;0.70;;
24485;SDS011;13449;49.374;8.584;2023-10-31T06:40:39;2.97;;;1.17;;
24485;SDS011;13449;49.374;8.584;2023-10-31T06:43:05;4.45;;;0.60;;
24485;SDS011;13449;49.374;8.584;2023-10-31T06:45:34;3.17;;;0.82;;
24485;SDS011;13449;49.374;8.584;2023-10-31T06:48:01;1.65;;;0.80;;
24485;SDS011;13449;49.374;8.584;2023-10-31T06:50:28;1.30;;;0.70;;
24485;SDS011;13449;49.374;8.584;2023-10-31T06:52:57;4.95;;;0.88;;
24485;SDS011;13449;49.374;8.584;2023-10-31T06:55:30;0.80;;;0.50;;
24485;SDS011;13449;49.374;8.584;2023-10-31T06:57:56;10.77;;;1.10;;
24485;SDS011;13449;49.374;8.584;2023-10-31T07:00:23;4.10;;;0.73;;
24485;SDS011;13449;49.374;8.584;2023-10-31T07:02:50;2.75;;;0.50;;
24485;SDS011;13449;49.374;8.584;2023-10-31T07:05:19;1.85;;;0.73;;
24485;SDS011;13449;49.374;8.584;2023-10-31T07:07:46;1.05;;;0.52;;
24485;SDS011;13449;49.374;8.584;2023-10-31T07:10:13;5.80;;;0.88;;
24485;SDS011;13449;49.374;8.584;2023-10-31T07:12:44;2.92;;;0.90;;
24485;SDS011;13449;49.374;8.584;2023-10-31T07:15:13;3.33;;;0.75;;
24485;SDS011;13449;49.374;8.584;2023-10-31T07:17:43;2.30;;;0.95;;
24485;SDS011;13449;49.374;8.584;2023-10-31T07:20:09;2.70;;;0.50;;
24485;SDS011;13449;49.374;8.584;2023-10-31T07:22:36;9.23;;;1.05;;
24485;SDS011;13449;49.374;8.584;2023-10-31T07:25:03;4.30;;;0.90;;
24485;SDS011;13449;49.374;8.584;2023-10-31T07:27:29;3.00;;;0.55;;
24485;SDS011;13449;49.374;8.584;2023-10-31T07:29:56;2.33;;;0.73;;
24485;SDS011;13449;49.374;8.584;2023-10-31T07:32:25;0.43;;;0.43;;
24485;SDS011;13449;49.374;8.584;2023-10-31T07:34:52;8.35;;;0.60;;
24485;SDS011;13449;49.374;8.584;2023-10-31T07:37:19;2.25;;;0.57;;
24485;SDS011;13449;49.374;8.584;2023-10-31T07:39:45;2.72;;;0.70;;
24485;SDS011;13449;49.374;8.584;2023-10-31T07:42:12;5.57;;;0.82;;
24485;SDS011;13449;49.374;8.584;2023-10-31T07:44:41;1.95;;;0.70;;
24485;SDS011;13449;49.374;8.584;2023-10-31T07:47:07;1.50;;;0.57;;
24485;SDS011;13449;49.374;8.584;2023-10-31T07:49:34;4.40;;;0.73;;
24485;SDS011;13449;49.374;8.584;2023-10-31T07:52:00;4.55;;;0.85;;
24485;SDS011;13449;49.374;8.584;2023-10-31T07:54:27;4.63;;;0.65;;
24485;SDS011;13449;49.374;8.584;2023-10-31T07:56:54;0.80;;;0.60;;
24485;SDS011;13449;49.374;8.584;2023-10-31T07:59:20;7.72;;;0.98;;
24485;SDS011;13449;49.374;8.584;2023-10-31T08:01:47;6.15;;;1.02;;
24485;SDS011;13449;49.374;8.584;2023-10-31T08:04:17;1.20;;;0.50;;
24485;SDS011;13449;49.374;8.584;2023-10-31T08:06:44;0.77;;;0.57;;
24485;SDS011;13449;49.374;8.584;2023-10-31T08:09:10;3.72;;;0.65;;
24485;SDS011;13449;49.374;8.584;2023-10-31T08:11:37;1.98;;;0.68;;
24485;SDS011;13449;49.374;8.584;2023-10-31T08:14:04;3.20;;;1.08;;
24485;SDS011;13449;49.374;8.584;2023-10-31T08:16:33;7.03;;;0.77;;
24485;SDS011;13449;49.374;8.584;2023-10-31T08:19:00;6.57;;;1.10;;
24485;SDS011;13449;49.374;8.584;2023-10-31T08:21:27;1.15;;;0.73;;
24485;SDS011;13449;49.374;8.584;2023-10-31T08:24:01;1.08;;;0.63;;
24485;SDS011;13449;49.374;8.584;2023-10-31T08:26:30;5.50;;;0.93;;
24485;SDS011;13449;49.374;8.584;2023-10-31T08:28:59;9.27;;;0.80;;
24485;SDS011;13449;49.374;8.584;2023-10-31T08:31:25;4.20;;;0.85;;
24485;SDS011;13449;49.374;8.584;2023-10-31T08:33:52;2.25;;;0.68;;
24485;SDS011;13449;49.374;8.584;2023-10-31T08:36:18;4.07;;;0.80;;
24485;SDS011;13449;49.374;8.584;2023-10-31T08:38:47;8.68;;;0.98;;
24485;SDS011;13449;49.374;8.584;2023-10-31T08:41:15;7.30;;;0.75;;
24485;SDS011;13449;49.374;8.584;2023-10-31T08:43:46;3.25;;;0.60;;
24485;SDS011;13449;49.374;8.584;2023-10-31T08:46:13;2.03;;;0.80;;
24485;SDS011;13449;49.374;8.584;2023-10-31T08:48:39;5.15;;;0.93;;
24485;SDS011;13449;49.374;8.584;2023-10-31T08:51:06;2.85;;;1.02;;
24485;SDS011;13449;49.374;8.584;2023-10-31T08:53:32;10.07;;;1.23;;
24485;SDS011;13449;49.374;8.584;2023-10-31T08:55:59;1.30;;;0.73;;
24485;SDS011;13449;49.374;8.584;2023-10-31T08:58:27;7.82;;;0.77;;
24485;SDS011;13449;49.374;8.584;2023-10-31T09:00:54;2.80;;;1.38;;
24485;SDS011;13449;49.374;8.584;2023-10-31T09:03:21;3.88;;;0.93;;
24485;SDS011;13449;49.374;8.584;2023-10-31T09:05:47;6.95;;;0.98;;
24485;SDS011;13449;49.374;8.584;2023-10-31T09:08:16;4.80;;;0.77;;
24485;SDS011;13449;49.374;8.584;2023-10-31T09:10:43;4.80;;;1.00;;
24485;SDS011;13449;49.374;8.584;2023-10-31T09:13:12;12.25;;;0.88;;
24485;SDS011;13449;49.374;8.584;2023-10-31T09:15:40;9.73;;;0.88;;
24485;SDS011;13449;49.374;8.584;2023-10-31T09:18:07;5.93;;;0.95;;
24485;SDS011;13449;49.374;8.584;2023-10-31T09:20:34;5.88;;;1.10;;
24485;SDS011;13449;49.374;8.584;2023-10-31T09:23:01;3.05;;;0.90;;
24485;SDS011;13449;49.374;8.584;2023-10-31T09:25:28;6.45;;;1.10;;
24485;SDS011;13449;49.374;8.584;2023-10-31T09:27:58;5.72;;;1.10;;
24485;SDS011;13449;49.374;8.584;2023-10-31T09:30:26;3.13;;;0.73;;
24485;SDS011;13449;49.374;8.584;2023-10-31T09:32:52;4.45;;;0.90;;
24485;SDS011;13449;49.374;8.584;2023-10-31T09:35:19;1.30;;;0.60;;
24485;SDS011;13449;49.374;8.584;2023-10-31T09:37:48;9.45;;;0.63;;
24485;SDS011;13449;49.374;8.584;2023-10-31T09:40:15;3.05;;;0.80;;
24485;SDS011;13449;49.374;8.584;2023-10-31T09:42:43;5.63;;;1.05;;
24485;SDS011;13449;49.374;8.584;2023-10-31T09:45:11;4.30;;;0.70;;
24485;SDS011;13449;49.374;8.584;2023-10-31T09:47:39;4.55;;;0.70;;
24485;SDS011;13449;49.374;8.584;2023-10-31T09:50:07;6.60;;;0.90;;
24485;SDS011;13449;49.374;8.584;2023-10-31T09:52:36;1.45;;;0.85;;
24485;SDS011;13449;49.374;8.584;2023-10-31T09:55:05;3.72;;;0.70;;
24485;SDS011;13449;49.374;8.584;2023-10-31T09:57:32;14.95;;;2.00;;
24485;SDS011;13449;49.374;8.584;2023-10-31T10:00:00;5.53;;;0.82;;
24485;SDS011;13449;49.374;8.584;2023-10-31T10:02:26;9.23;;;1.02;;
24485;SDS011;13449;49.374;8.584;2023-10-31T10:04:55;6.40;;;0.70;;
24485;SDS011;13449;49.374;8.584;2023-10-31T10:07:27;12.60;;;0.95;;
24485;SDS011;13449;49.374;8.584;2023-10-31T10:09:53;5.90;;;0.60;;
24485;SDS011;13449;49.374;8.584;2023-10-31T10:12:22;1.00;;;0.52;;
24485;SDS011;13449;49.374;8.584;2023-10-31T10:14:50;3.95;;;0.80;;
24485;SDS011;13449;49.374;8.584;2023-10-31T10:17:24;7.13;;;0.90;;
24485;SDS011;13449;49.374;8.584;2023-10-31T10:20:09;4.03;;;0.45;;
24485;SDS011;13449;49.374;8.584;2023-10-31T10:22:37;4.18;;;0.80;;
24485;SDS011;13449;49.374;8.584;2023-10-31T10:25:06;4.38;;;0.80;;
24485;SDS011;13449;49.374;8.584;2023-10-31T10:27:35;5.28;;;0.55;;
24485;SDS011;13449;49.374;8.584;2023-10-31T10:30:04;1.08;;;0.45;;
24485;SDS011;13449;49.374;8.584;2023-10-31T10:32:32;7.78;;;0.68;;
24485;SDS011;13449;49.374;8.584;2023-10-31T10:34:58;13.85;;;0.98;;
24485;SDS011;13449;49.374;8.584;2023-10-31T10:37:26;3.05;;;0.90;;
24485;SDS011;13449;49.374;8.584;2023-10-31T10:39:53;6.20;;;0.82;;
24485;SDS011;13449;49.374;8.584;2023-10-31T10:42:31;10.23;;;0.70;;
24485;SDS011;13449;49.374;8.584;2023-10-31T10:45:14;4.75;;;0.45;;
24485;SDS011;13449;49.374;8.584;2023-10-31T10:47:45;8.50;;;0.95;;
24485;SDS011;13449;49.374;8.584;2023-10-31T10:50:15;4.45;;;0.95;;
24485;SDS011;13449;49.374;8.584;2023-10-31T10:52:49;6.72;;;1.20;;
24485;SDS011;13449;49.374;8.584;2023-10-31T10:55:21;9.60;;;0.73;;
24485;SDS011;13449;49.374;8.584;2023-10-31T10:58:03;6.00;;;0.85;;
24485;SDS011;13449;49.374;8.584;2023-10-31T11:00:34;8.63;;;2.50;;
24485;SDS011;13449;49.374;8.584;2023-10-31T11:03:01;2.55;;;0.57;;
24485;SDS011;13449;49.374;8.584;2023-10-31T11:05:28;3.90;;;1.00;;
24485;SDS011;13449;49.374;8.584;2023-10-31T11:07:55;7.25;;;1.27;;
24485;SDS011;13449;49.374;8.584;2023-10-31T11:10:25;5.78;;;2.42;;
24485;SDS011;13449;49.374;8.584;2023-10-31T11:12:55;7.63;;;1.45;;
24485;SDS011;13449;49.374;8.584;2023-10-31T11:15:22;3.10;;;0.98;;
24485;SDS011;13449;49.374;8.584;2023-10-31T11:17:51;6.57;;;0.80;;
24485;SDS011;13449;49.374;8.584;2023-10-31T11:20:19;3.25;;;0.95;;
24485;SDS011;13449;49.374;8.584;2023-10-31T11:22:46;7.80;;;2.55;;
24485;SDS011;13449;49.374;8.584;2023-10-31T11:25:18;13.27;;;2.60;;
24485;SDS011;13449;49.374;8.584;2023-10-31T11:28:10;22.67;;;4.85;;
24485;SDS011;13449;49.374;8.584;2023-10-31T11:30:38;7.13;;;2.10;;
24485;SDS011;13449;49.374;8.584;2023-10-31T11:33:06;7.28;;;1.65;;
24485;SDS011;13449;49.374;8.584;2023-10-31T11:35:40;6.03;;;1.67;;
24485;SDS011;13449;49.374;8.584;2023-10-31T11:38:09;4.40;;;0.70;;
24485;SDS011;13449;49.374;8.584;2023-10-31T11:40:46;8.20;;;1.90;;
24485;SDS011;13449;49.374;8.584;2023-10-31T11:43:26;6.72;;;2.05;;
24485;SDS011;13449;49.374;8.584;2023-10-31T11:46:02;2.67;;;1.05;;
24485;SDS011;13449;49.374;8.584;2023-10-31T11:51:16;7.10;;;0.73;;
24485;SDS011;13449;49.374;8.584;2023-10-31T11:53:43;1.48;;;0.60;;
24485;SDS011;13449;49.374;8.584;2023-10-31T11:56:13;9.30;;;0.63;;
24485;SDS011;13449;49.374;8.584;2023-10-31T11:58:43;4.35;;;1.17;;
24485;SDS011;13449;49.374;8.584;2023-10-31T12:01:09;3.05;;;0.68;;
24485;SDS011;13449;49.374;8.584;2023-10-31T12:03:40;1.17;;;0.47;;
24485;SDS011;13449;49.374;8.584;2023-10-31T12:06:14;2.28;;;0.90;;
24485;SDS011;13449;49.374;8.584;2023-10-31T12:08:41;3.42;;;0.43;;
24485;SDS011;13449;49.374;8.584;2023-10-31T12:11:13;2.72;;;0.93;;
24485;SDS011;13449;49.374;8.584;2023-10-31T12:13:40;2.30;;;0.38;;
24485;SDS011;13449;49.374;8.584;2023-10-31T12:16:18;0.95;;;0.80;;
24485;SDS011;13449;49.374;8.584;2023-10-31T12:18:45;1.98;;;0.73;;
24485;SDS011;13449;49.374;8.584;2023-10-31T12:21:20;0.35;;;0.20;;
24485;SDS011;13449;49.374;8.584;2023-10-31T12:24:07;5.32;;;0.93;;
24485;SDS011;13449;49.374;8.584;2023-10-31T12:26:37;4.37;;;0.70;;
24485;SDS011;13449;49.374;8.584;2023-10-31T12:31:43;2.25;;;0.50;;
24485;SDS011;13449;49.374;8.584;2023-10-31T12:34:17;2.72;;;0.50;;
24485;SDS011;13449;49.374;8.584;2023-10-31T12:36:46;1.52;;;0.32;;
24485;SDS011;13449;49.374;8.584;2023-10-31T12:39:16;7.32;;;0.55;;
24485;SDS011;13449;49.374;8.584;2023-10-31T12:41:47;2.95;;;0.68;;
24485;SDS011;13449;49.374;8.584;2023-10-31T12:44:17;3.25;;;0.50;;
24485;SDS011;13449;49.374;8.584;2023-10-31T12:46:52;3.65;;;0.57;;
24485;SDS011;13449;49.374;8.584;2023-10-31T12:49:22;1.33;;;0.70;;
24485;SDS011;13449;49.374;8.584;2023-10-31T12:54:29;1.15;;;0.57;;
24485;SDS011;13449;49.374;8.584;2023-10-31T12:57:02;2.67;;;0.50;;
24485;SDS011;13449;49.374;8.584;2023-10-31T12:59:34;7.68;;;1.05;;
24485;SDS011;13449;49.374;8.584;2023-10-31T13:02:06;4.03;;;1.00;;
24485;SDS011;13449;49.374;8.584;2023-10-31T13:04:37;6.03;;;0.65;;
24485;SDS011;13449;49.374;8.584;2023-10-31T13:07:05;1.27;;;0.52;;
24485;SDS011;13449;49.374;8.584;2023-10-31T13:09:35;1.42;;;0.60;;
24485;SDS011;13449;49.374;8.584;2023-10-31T13:12:06;6.10;;;1.13;;
24485;SDS011;13449;49.374;8.584;2023-10-31T13:14:33;6.55;;;1.40;;
24485;SDS011;13449;49.374;8.584;2023-10-31T13:17:01;3.42;;;0.73;;
24485;SDS011;13449;49.374;8.584;2023-10-31T13:19:30;10.23;;;0.70;;
24485;SDS011;13449;49.374;8.584;2023-10-31T13:21:58;1.23;;;0.55;;
24485;SDS011;13449;49.374;8.584;2023-10-31T13:24:25;1.60;;;0.30;;
24485;SDS011;13449;49.374;8.584;2023-10-31T13:26:51;0.98;;;0.38;;
24485;SDS011;13449;49.374;8.584;2023-10-31T13:29:19;0.52;;;0.40;;
24485;SDS011;13449;49.374;8.584;2023-10-31T13:31:46;3.55;;;0.70;;
24485;SDS011;13449;49.374;8.584;2023-10-31T13:34:15;1.05;;;0.45;;
24485;SDS011;13449;49.374;8.584;2023-10-31T13:36:44;1.45;;;0.55;;
24485;SDS011;13449;49.374;8.584;2023-10-31T13:39:17;0.50;;;0.30;;
24485;SDS011;13449;49.374;8.584;2023-10-31T13:41:44;2.20;;;0.43;;
24485;SDS011;13449;49.374;8.584;2023-10-31T13:44:10;0.55;;;0.50;;
24485;SDS011;13449;49.374;8.584;2023-10-31T13:46:37;3.75;;;0.70;;
24485;SDS011;13449;49.374;8.584;2023-10-31T13:49:03;0.40;;;0.32;;
24485;SDS011;13449;49.374;8.584;2023-10-31T13:51:30;1.05;;;0.43;;
24485;SDS011;13449;49.374;8.584;2023-10-31T13:53:56;4.18;;;0.50;;
24485;SDS011;13449;49.374;8.584;2023-10-31T13:56:23;0.60;;;0.55;;
24485;SDS011;13449;49.374;8.584;2023-10-31T13:58:49;2.03;;;0.40;;
24485;SDS011;13449;49.374;8.584;2023-10-31T14:01:18;3.00;;;0.30;;
24485;SDS011;13449;49.374;8.584;2023-10-31T14:03:51;1.90;;;0.57;;
24485;SDS011;13449;49.374;8.584;2023-10-31T14:06:17;1.27;;;0.63;;
24485;SDS011;13449;49.374;8.584;2023-10-31T14:08:45;0.40;;;0.40;;
24485;SDS011;13449;49.374;8.584;2023-10-31T14:11:11;1.77;;;0.40;;
24485;SDS011;13449;49.374;8.584;2023-10-31T14:13:38;1.40;;;0.65;;
24485;SDS011;13449;49.374;8.584;2023-10-31T14:16:07;5.30;;;0.80;;
24485;SDS011;13449;49.374;8.584;2023-10-31T14:18:35;3.90;;;0.75;;
24485;SDS011;13449;49.374;8.584;2023-10-31T14:21:01;0.47;;;0.35;;
24485;SDS011;13449;49.374;8.584;2023-10-31T14:23:28;0.82;;;0.50;;
24485;SDS011;13449;49.374;8.584;2023-10-31T14:25:54;3.80;;;0.50;;
24485;SDS011;13449;49.374;8.584;2023-10-31T14:28:21;1.75;;;0.77;;
24485;SDS011;13449;49.374;8.584;2023-10-31T14:30:47;3.60;;;0.52;;
24485;SDS011;13449;49.374;8.584;2023-10-31T14:33:14;0.85;;;0.45;;
24485;SDS011;13449;49.374;8.584;2023-10-31T14:35:41;1.63;;;0.50;;
24485;SDS011;13449;49.374;8.584;2023-10-31T14:38:12;7.30;;;0.80;;
24485;SDS011;13449;49.374;8.584;2023-10-31T14:40:39;6.95;;;1.20;;
24485;SDS011;13449;49.374;8.584;2023-10-31T14:43:05;3.47;;;0.75;;
24485;SDS011;13449;49.374;8.584;2023-10-31T14:45:31;2.17;;;1.15;;
24485;SDS011;13449;49.374;8.584;2023-10-31T14:47:58;2.13;;;0.75;;
24485;SDS011;13449;49.374;8.584;2023-10-31T14:50:29;4.18;;;1.00;;
24485;SDS011;13449;49.374;8.584;2023-10-31T14:52:56;4.40;;;0.85;;
24485;SDS011;13449;49.374;8.584;2023-10-31T14:55:22;3.30;;;0.68;;
24485;SDS011;13449;49.374;8.584;2023-10-31T14:57:51;1.75;;;0.60;;
24485;SDS011;13449;49.374;8.584;2023-10-31T15:00:17;4.72;;;0.82;;